createdAt,value
2016-11-14T00:00:47.688Z,0
2016-11-14T00:01:47.704Z,0
2016-11-14T00:02:47.700Z,0
2016-11-14T00:03:47.724Z,0
2016-11-14T00:04:47.728Z,0
2016-11-14T00:05:47.763Z,0
2016-11-14T00:06:47.752Z,0
2016-11-14T00:07:47.769Z,0
2016-11-14T00:08:47.781Z,0
2016-11-14T00:09:47.786Z,0
2016-11-14T00:10:47.806Z,0
2016-11-14T00:11:47.802Z,0
2016-11-14T00:12:47.810Z,0
2016-11-14T00:13:47.824Z,0
2016-11-14T00:14:47.834Z,0
2016-11-14T00:15:47.853Z,0
2016-11-14T00:16:47.856Z,0
2016-11-14T00:17:47.862Z,0
2016-11-14T00:18:47.883Z,0
2016-11-14T00:19:47.888Z,0
2016-11-14T00:20:47.991Z,0
2016-11-14T00:21:47.893Z,0
2016-11-14T00:22:47.918Z,0
2016-11-14T00:23:47.923Z,0
2016-11-14T00:24:47.941Z,0
2016-11-14T00:25:47.945Z,0
2016-11-14T00:26:47.970Z,0
2016-11-14T00:27:47.970Z,0
2016-11-14T00:28:47.975Z,0
2016-11-14T00:29:47.982Z,0
2016-11-14T00:30:48.001Z,0
2016-11-14T00:31:48.006Z,0
2016-11-14T00:32:48.010Z,0
2016-11-14T00:33:48.031Z,0
2016-11-14T00:34:48.048Z,0
2016-11-14T00:35:48.044Z,0
2016-11-14T00:36:48.076Z,0
2016-11-14T00:37:48.077Z,0
2016-11-14T00:38:48.066Z,0
2016-11-14T00:39:48.088Z,0
2016-11-14T00:40:48.113Z,0
2016-11-14T00:41:48.121Z,0
2016-11-14T00:42:48.125Z,0
2016-11-14T00:43:48.204Z,0
2016-11-14T00:44:48.134Z,0
2016-11-14T00:45:48.142Z,0
2016-11-14T00:46:48.153Z,0
2016-11-14T00:47:48.169Z,0
2016-11-14T00:48:48.180Z,0
2016-11-14T00:49:48.187Z,0
2016-11-14T00:50:48.203Z,0
2016-11-14T00:51:48.200Z,0
2016-11-14T00:52:48.221Z,0
2016-11-14T00:53:48.220Z,0
2016-11-14T00:54:48.232Z,0
2016-11-14T00:55:48.249Z,0
2016-11-14T00:56:48.251Z,0
2016-11-14T00:57:48.274Z,0
2016-11-14T00:58:48.282Z,0
2016-11-14T00:59:48.296Z,0
2016-11-14T01:00:48.293Z,0
2016-11-14T01:01:48.306Z,0
2016-11-14T01:02:48.331Z,0
2016-11-14T01:03:48.331Z,0
2016-11-14T01:04:48.347Z,0
2016-11-14T01:05:48.345Z,0
2016-11-14T01:06:48.355Z,0
2016-11-14T01:07:48.406Z,0
2016-11-14T01:08:48.404Z,0
2016-11-14T01:09:48.381Z,0
2016-11-14T01:10:48.399Z,0
2016-11-14T01:11:48.402Z,0
2016-11-14T01:12:48.413Z,0
2016-11-14T01:13:48.434Z,0
2016-11-14T01:14:48.438Z,0
2016-11-14T01:15:48.443Z,0
2016-11-14T01:16:48.465Z,0
2016-11-14T01:17:48.461Z,0
2016-11-14T01:18:48.486Z,0
2016-11-14T01:19:48.492Z,0
2016-11-14T01:20:48.494Z,0
2016-11-14T01:21:48.504Z,0
2016-11-14T01:22:48.514Z,0
2016-11-14T01:23:48.528Z,0
2016-11-14T01:24:48.529Z,0
2016-11-14T01:25:48.547Z,0
2016-11-14T01:26:48.548Z,0
2016-11-14T01:27:48.564Z,0
2016-11-14T01:28:48.597Z,0
2016-11-14T01:29:48.578Z,0
2016-11-14T01:30:48.604Z,0
2016-11-14T01:31:48.608Z,0
2016-11-14T01:32:48.954Z,0
2016-11-14T01:33:48.622Z,0
2016-11-14T01:34:48.636Z,0
2016-11-14T01:35:48.642Z,0
2016-11-14T01:36:48.666Z,0
2016-11-14T01:37:48.664Z,0
2016-11-14T01:38:48.673Z,0
2016-11-14T01:39:48.683Z,0
2016-11-14T01:40:48.688Z,0
2016-11-14T01:41:48.715Z,0
2016-11-14T01:42:48.711Z,0
2016-11-14T01:43:48.741Z,0
2016-11-14T01:44:48.724Z,0
2016-11-14T01:45:48.739Z,0
2016-11-14T01:46:48.761Z,0
2016-11-14T01:47:48.773Z,0
2016-11-14T01:48:48.790Z,0
2016-11-14T01:49:48.784Z,0
2016-11-14T01:50:48.790Z,0
2016-11-14T01:51:48.839Z,0
2016-11-14T01:52:48.815Z,0
2016-11-14T01:53:48.832Z,0
2016-11-14T01:54:48.835Z,0
2016-11-14T01:55:48.842Z,0
2016-11-14T01:56:48.851Z,0
2016-11-14T01:57:48.868Z,0
2016-11-14T01:58:48.889Z,0
2016-11-14T01:59:48.875Z,0
2016-11-14T02:00:48.888Z,0
2016-11-14T02:01:48.893Z,0
2016-11-14T02:02:48.898Z,0
2016-11-14T02:03:48.918Z,0
2016-11-14T02:04:48.933Z,0
2016-11-14T02:05:48.963Z,0
2016-11-14T02:06:48.965Z,0
2016-11-14T02:07:48.955Z,0
2016-11-14T02:08:48.971Z,0
2016-11-14T02:09:48.977Z,0
2016-11-14T02:10:48.989Z,0
2016-11-14T02:11:49.002Z,0
2016-11-14T02:12:49.004Z,0
2016-11-14T02:13:49.017Z,0
2016-11-14T02:14:49.026Z,0
2016-11-14T02:15:49.035Z,0
2016-11-14T02:16:49.055Z,0
2016-11-14T02:17:49.045Z,0
2016-11-14T02:18:49.070Z,0
2016-11-14T02:19:49.075Z,0
2016-11-14T02:20:49.088Z,0
2016-11-14T02:21:49.099Z,0
2016-11-14T02:22:49.110Z,0
2016-11-14T02:23:49.112Z,0
2016-11-14T02:24:49.218Z,0
2016-11-14T02:25:49.172Z,0
2016-11-14T02:26:49.154Z,0
2016-11-14T02:27:49.152Z,0
2016-11-14T02:28:49.154Z,0
2016-11-14T02:29:49.173Z,0
2016-11-14T02:30:49.201Z,0
2016-11-14T02:31:49.193Z,0
2016-11-14T02:32:49.208Z,0
2016-11-14T02:33:49.208Z,0
2016-11-14T02:34:49.237Z,0
2016-11-14T02:35:49.230Z,0
2016-11-14T02:36:49.249Z,0
2016-11-14T02:37:49.245Z,0
2016-11-14T02:38:49.264Z,0
2016-11-14T02:39:49.262Z,0
2016-11-14T02:40:49.324Z,0
2016-11-14T02:41:49.301Z,0
2016-11-14T02:42:49.292Z,0
2016-11-14T02:43:49.374Z,0
2016-11-14T02:44:49.309Z,0
2016-11-14T02:45:49.320Z,0
2016-11-14T02:46:49.338Z,0
2016-11-14T02:47:49.349Z,0
2016-11-14T02:48:49.356Z,0
2016-11-14T02:49:49.361Z,0
2016-11-14T02:50:49.372Z,0
2016-11-14T02:51:49.381Z,0
2016-11-14T02:52:49.393Z,0
2016-11-14T02:53:49.397Z,0
2016-11-14T02:54:49.408Z,0
2016-11-14T02:55:49.421Z,0
2016-11-14T02:56:49.446Z,0
2016-11-14T02:57:49.443Z,0
2016-11-14T02:58:49.453Z,0
2016-11-14T02:59:49.462Z,0
2016-11-14T03:00:49.476Z,0
2016-11-14T03:01:49.480Z,0
2016-11-14T03:02:49.495Z,0
2016-11-14T03:03:49.503Z,0
2016-11-14T03:04:49.499Z,0
2016-11-14T03:05:49.517Z,0
2016-11-14T03:06:49.528Z,0
2016-11-14T03:07:49.528Z,0
2016-11-14T03:08:49.539Z,0
2016-11-14T03:09:49.549Z,0
2016-11-14T03:10:49.579Z,0
2016-11-14T03:11:49.586Z,0
2016-11-14T03:12:49.585Z,0
2016-11-14T03:13:49.593Z,0
2016-11-14T03:14:49.608Z,0
2016-11-14T03:15:49.695Z,0
2016-11-14T03:16:49.624Z,0
2016-11-14T03:17:49.637Z,0
2016-11-14T03:18:49.644Z,0
2016-11-14T03:19:49.655Z,0
2016-11-14T03:20:49.651Z,0
2016-11-14T03:21:49.658Z,0
2016-11-14T03:22:49.682Z,0
2016-11-14T03:23:49.683Z,0
2016-11-14T03:24:49.707Z,0
2016-11-14T03:25:49.705Z,0
2016-11-14T03:26:49.723Z,0
2016-11-14T03:27:49.722Z,0
2016-11-14T03:28:49.747Z,0
2016-11-14T03:29:49.755Z,0
2016-11-14T03:30:49.760Z,0
2016-11-14T03:31:49.760Z,0
2016-11-14T03:32:49.765Z,0
2016-11-14T03:33:49.788Z,0
2016-11-14T03:34:49.792Z,0
2016-11-14T03:35:49.794Z,0
2016-11-14T03:36:49.806Z,0
2016-11-14T03:37:49.817Z,0
2016-11-14T03:38:49.819Z,0
2016-11-14T03:39:49.836Z,0
2016-11-14T03:40:49.842Z,0
2016-11-14T03:41:49.858Z,0
2016-11-14T03:42:49.866Z,0
2016-11-14T03:43:49.885Z,0
2016-11-14T03:44:49.897Z,0
2016-11-14T03:45:49.945Z,0
2016-11-14T03:46:49.905Z,0
2016-11-14T03:47:49.909Z,0
2016-11-14T03:48:49.930Z,0
2016-11-14T03:49:49.933Z,0
2016-11-14T03:50:49.948Z,0
2016-11-14T03:51:49.951Z,0
2016-11-14T03:52:49.958Z,0
2016-11-14T03:53:49.974Z,0
2016-11-14T03:54:49.978Z,0
2016-11-14T03:55:49.989Z,0
2016-11-14T03:56:50.002Z,0
2016-11-14T03:57:50.009Z,0
2016-11-14T03:58:50.379Z,0
2016-11-14T03:59:50.031Z,0
2016-11-14T04:01:50.043Z,0
2016-11-14T04:02:50.062Z,0
2016-11-14T04:03:50.074Z,0
2016-11-14T04:04:50.081Z,0
2016-11-14T04:05:50.083Z,0
2016-11-14T04:06:50.095Z,0
2016-11-14T04:07:50.106Z,0
2016-11-14T04:08:50.117Z,0
2016-11-14T04:09:50.124Z,0
2016-11-14T04:10:50.135Z,0
2016-11-14T04:11:50.142Z,0
2016-11-14T04:12:50.153Z,0
2016-11-14T04:13:50.172Z,0
2016-11-14T04:14:50.174Z,0
2016-11-14T04:15:50.183Z,0
2016-11-14T04:16:50.198Z,0
2016-11-14T04:17:50.278Z,0
2016-11-14T04:18:50.211Z,0
2016-11-14T04:19:50.225Z,0
2016-11-14T04:20:50.223Z,0
2016-11-14T04:21:50.247Z,0
2016-11-14T04:22:50.265Z,0
2016-11-14T04:23:50.265Z,0
2016-11-14T04:24:50.262Z,0
2016-11-14T04:25:50.275Z,0
2016-11-14T04:26:50.287Z,0
2016-11-14T04:27:50.297Z,0
2016-11-14T04:28:50.303Z,0
2016-11-14T04:29:50.313Z,0
2016-11-14T04:30:50.334Z,0
2016-11-14T04:31:50.330Z,0
2016-11-14T04:32:50.348Z,0
2016-11-14T04:33:50.347Z,0
2016-11-14T04:34:50.358Z,0
2016-11-14T04:35:50.374Z,0
2016-11-14T04:36:50.377Z,0
2016-11-14T04:37:50.384Z,0
2016-11-14T04:38:50.395Z,0
2016-11-14T04:39:50.419Z,0
2016-11-14T04:40:50.502Z,0
2016-11-14T04:41:50.426Z,0
2016-11-14T04:42:50.437Z,0
2016-11-14T04:43:50.439Z,0
2016-11-14T04:44:50.449Z,0
2016-11-14T04:45:50.471Z,0
2016-11-14T04:46:50.482Z,0
2016-11-14T04:47:50.488Z,0
2016-11-14T04:48:50.484Z,0
2016-11-14T04:49:50.508Z,0
2016-11-14T04:50:50.501Z,0
2016-11-14T04:51:50.525Z,0
2016-11-14T04:52:50.519Z,0
2016-11-14T04:53:50.535Z,0
2016-11-14T04:54:50.541Z,0
2016-11-14T04:55:50.559Z,0
2016-11-14T04:56:50.557Z,0
2016-11-14T04:57:50.578Z,0
2016-11-14T04:58:50.673Z,0
2016-11-14T04:59:50.595Z,0
2016-11-14T05:00:50.600Z,0
2016-11-14T05:01:50.603Z,0
2016-11-14T05:02:50.617Z,0
2016-11-14T05:03:50.710Z,0
2016-11-14T05:04:50.637Z,0
2016-11-14T05:05:50.640Z,0
2016-11-14T05:06:50.658Z,0
2016-11-14T05:07:50.660Z,0
2016-11-14T05:08:50.709Z,0
2016-11-14T05:09:50.680Z,0
2016-11-14T05:10:50.695Z,0
2016-11-14T05:11:50.700Z,0
2016-11-14T05:12:50.718Z,0
2016-11-14T05:13:50.716Z,0
2016-11-14T05:14:50.721Z,0
2016-11-14T05:15:50.740Z,0
2016-11-14T05:16:50.742Z,0
2016-11-14T05:17:50.762Z,0
2016-11-14T05:18:50.777Z,0
2016-11-14T05:19:50.779Z,0
2016-11-14T05:20:50.775Z,0
2016-11-14T05:22:05.628Z,0
2016-11-14T05:22:50.809Z,0
2016-11-14T05:23:50.817Z,0
2016-11-14T05:24:50.815Z,0
2016-11-14T05:25:50.828Z,0
2016-11-14T05:26:50.843Z,0
2016-11-14T05:27:50.852Z,0
2016-11-14T05:28:50.870Z,0
2016-11-14T05:29:50.867Z,0
2016-11-14T05:30:50.873Z,0
2016-11-14T05:31:50.886Z,0
2016-11-14T05:32:50.900Z,0
2016-11-14T05:33:50.898Z,0
2016-11-14T05:34:50.905Z,0
2016-11-14T05:35:50.918Z,0
2016-11-14T05:36:50.929Z,0
2016-11-14T05:37:50.949Z,0
2016-11-14T05:38:50.953Z,0
2016-11-14T05:39:50.960Z,0
2016-11-14T05:40:51.007Z,0
2016-11-14T05:41:51.011Z,0
2016-11-14T05:42:50.981Z,0
2016-11-14T05:43:50.988Z,0
2016-11-14T05:44:51.011Z,0
2016-11-14T05:45:51.019Z,0
2016-11-14T05:46:51.026Z,0
2016-11-14T05:47:51.034Z,0
2016-11-14T05:48:51.039Z,0
2016-11-14T05:49:51.034Z,0
2016-11-14T05:50:51.053Z,0
2016-11-14T05:51:51.142Z,0
2016-11-14T05:52:51.068Z,0
2016-11-14T05:53:51.080Z,0
2016-11-14T05:54:51.084Z,0
2016-11-14T05:55:51.096Z,0
2016-11-14T05:56:51.104Z,0
2016-11-14T05:57:51.156Z,0
2016-11-14T05:58:51.118Z,0
2016-11-14T05:59:51.132Z,0
2016-11-14T06:00:51.132Z,0
2016-11-14T06:01:51.181Z,0
2016-11-14T06:02:51.161Z,0
2016-11-14T06:03:51.166Z,0
2016-11-14T06:04:51.173Z,0
2016-11-14T06:05:51.184Z,0
2016-11-14T06:06:51.206Z,0
2016-11-14T06:07:51.201Z,4
2016-11-14T06:08:51.208Z,4
2016-11-14T06:09:51.221Z,0
2016-11-14T06:10:51.238Z,4
2016-11-14T06:11:51.239Z,4
2016-11-14T06:12:51.252Z,4
2016-11-14T06:13:51.253Z,8
2016-11-14T06:14:51.274Z,4
2016-11-14T06:15:51.288Z,8
2016-11-14T06:16:51.285Z,8
2016-11-14T06:17:51.287Z,8
2016-11-14T06:18:51.295Z,8
2016-11-14T06:19:51.314Z,12
2016-11-14T06:20:51.325Z,12
2016-11-14T06:21:51.341Z,16
2016-11-14T06:22:51.339Z,20
2016-11-14T06:23:51.391Z,24
2016-11-14T06:24:51.362Z,28
2016-11-14T06:25:51.372Z,32
2016-11-14T06:26:51.380Z,40
2016-11-14T06:27:51.397Z,44
2016-11-14T06:28:51.396Z,52
2016-11-14T06:29:51.396Z,64
2016-11-14T06:30:51.411Z,72
2016-11-14T06:31:51.420Z,80
2016-11-14T06:32:51.429Z,92
2016-11-14T06:33:51.444Z,104
2016-11-14T06:34:51.451Z,120
2016-11-14T06:35:51.458Z,136
2016-11-14T06:36:51.472Z,152
2016-11-14T06:37:51.475Z,172
2016-11-14T06:38:51.489Z,188
2016-11-14T06:39:51.491Z,212
2016-11-14T06:40:51.505Z,232
2016-11-14T06:41:51.507Z,260
2016-11-14T06:42:51.511Z,284
2016-11-14T06:43:51.525Z,312
2016-11-14T06:44:51.551Z,336
2016-11-14T06:45:51.554Z,368
2016-11-14T06:46:51.551Z,400
2016-11-14T06:47:51.569Z,432
2016-11-14T06:48:51.575Z,468
2016-11-14T06:49:51.592Z,504
2016-11-14T06:50:51.592Z,540
2016-11-14T06:51:51.599Z,576
2016-11-14T06:52:51.606Z,616
2016-11-14T06:53:51.625Z,656
2016-11-14T06:54:51.635Z,696
2016-11-14T06:55:51.627Z,736
2016-11-14T06:56:51.642Z,780
2016-11-14T06:57:51.659Z,820
2016-11-14T06:58:51.681Z,868
2016-11-14T06:59:51.687Z,916
2016-11-14T07:00:51.688Z,956
2016-11-14T07:01:51.689Z,1004
2016-11-14T07:02:51.709Z,1048
2016-11-14T07:03:51.719Z,1096
2016-11-14T07:04:51.725Z,1140
2016-11-14T07:05:51.733Z,1188
2016-11-14T07:06:51.735Z,1236
2016-11-14T07:07:51.750Z,1284
2016-11-14T07:08:51.765Z,1332
2016-11-14T07:09:51.774Z,1376
2016-11-14T07:10:51.781Z,1424
2016-11-14T07:11:51.817Z,1468
2016-11-14T07:12:51.800Z,1516
2016-11-14T07:13:51.838Z,1560
2016-11-14T07:14:51.822Z,1608
2016-11-14T07:15:51.817Z,1652
2016-11-14T07:16:51.838Z,1692
2016-11-14T07:17:51.839Z,1740
2016-11-14T07:18:51.852Z,1784
2016-11-14T07:19:51.862Z,1828
2016-11-14T07:20:51.870Z,1872
2016-11-14T07:21:51.890Z,1916
2016-11-14T07:22:51.896Z,1960
2016-11-14T07:23:51.911Z,2008
2016-11-14T07:24:51.918Z,2060
2016-11-14T07:25:51.923Z,2108
2016-11-14T07:26:51.929Z,2164
2016-11-14T07:27:51.932Z,2224
2016-11-14T07:28:51.939Z,2284
2016-11-14T07:29:51.963Z,2336
2016-11-14T07:30:51.968Z,2392
2016-11-14T07:31:51.981Z,2440
2016-11-14T07:32:51.979Z,2488
2016-11-14T07:33:51.999Z,2536
2016-11-14T07:34:52.008Z,2576
2016-11-14T07:35:52.007Z,2616
2016-11-14T07:36:52.026Z,2660
2016-11-14T07:37:52.368Z,2700
2016-11-14T07:38:52.037Z,2736
2016-11-14T07:39:52.042Z,2780
2016-11-14T07:40:52.068Z,2824
2016-11-14T07:41:52.076Z,2872
2016-11-14T07:42:52.098Z,2920
2016-11-14T07:43:52.090Z,2972
2016-11-14T07:44:52.108Z,3024
2016-11-14T07:45:52.115Z,3080
2016-11-14T07:46:52.111Z,3136
2016-11-14T07:47:52.121Z,3192
2016-11-14T07:48:52.141Z,3248
2016-11-14T07:49:52.156Z,3296
2016-11-14T07:50:52.157Z,3348
2016-11-14T07:51:52.181Z,3400
2016-11-14T07:52:52.183Z,3444
2016-11-14T07:53:52.194Z,3496
2016-11-14T07:54:52.221Z,3544
2016-11-14T07:55:52.435Z,3588
2016-11-14T07:56:52.435Z,3640
2016-11-14T07:57:52.226Z,3680
2016-11-14T07:58:52.234Z,3728
2016-11-14T07:59:52.253Z,3772
2016-11-14T08:00:52.254Z,3824
2016-11-14T08:01:52.269Z,3800
2016-11-14T08:02:52.281Z,3840
2016-11-14T08:03:52.280Z,3884
2016-11-14T08:04:52.298Z,3928
2016-11-14T08:05:52.306Z,3972
2016-11-14T08:06:52.362Z,4020
2016-11-14T08:07:52.343Z,4060
2016-11-14T08:08:52.335Z,4108
2016-11-14T08:09:52.351Z,4144
2016-11-14T08:10:52.391Z,4188
2016-11-14T08:11:52.382Z,4220
2016-11-14T08:12:52.383Z,4264
2016-11-14T08:13:52.403Z,4292
2016-11-14T08:14:52.401Z,4332
2016-11-14T08:15:52.423Z,4368
2016-11-14T08:16:52.421Z,4408
2016-11-14T08:17:52.440Z,4452
2016-11-14T08:18:52.445Z,4480
2016-11-14T08:19:52.456Z,4520
2016-11-14T08:20:52.477Z,4556
2016-11-14T08:21:52.474Z,4596
2016-11-14T08:22:52.490Z,4636
2016-11-14T08:23:52.503Z,4676
2016-11-14T08:24:52.511Z,4704
2016-11-14T08:25:52.513Z,4736
2016-11-14T08:26:52.522Z,4764
2016-11-14T08:27:52.537Z,4788
2016-11-14T08:28:52.562Z,4816
2016-11-14T08:29:52.567Z,4844
2016-11-14T08:30:52.575Z,4856
2016-11-14T08:31:52.590Z,4880
2016-11-14T08:32:52.592Z,4900
2016-11-14T08:33:52.608Z,4920
2016-11-14T08:34:52.620Z,4944
2016-11-14T08:35:52.624Z,4980
2016-11-14T08:36:52.638Z,5012
2016-11-14T08:37:52.654Z,5040
2016-11-14T08:38:52.666Z,5064
2016-11-14T08:39:52.682Z,4972
2016-11-14T08:40:52.690Z,5104
2016-11-14T08:41:52.695Z,5128
2016-11-14T08:42:52.717Z,5156
2016-11-14T08:43:53.098Z,5196
2016-11-14T08:44:52.735Z,5236
2016-11-14T08:45:52.774Z,5264
2016-11-14T08:46:52.763Z,5292
2016-11-14T08:47:52.768Z,5328
2016-11-14T08:48:52.786Z,5364
2016-11-14T08:49:52.785Z,5396
2016-11-14T08:50:52.809Z,5432
2016-11-14T08:51:52.813Z,5460
2016-11-14T08:52:52.821Z,5472
2016-11-14T08:53:52.834Z,5492
2016-11-14T08:54:52.851Z,5504
2016-11-14T08:55:52.855Z,5540
2016-11-14T08:56:52.868Z,5568
2016-11-14T08:57:52.881Z,5600
2016-11-14T08:58:52.896Z,5636
2016-11-14T08:59:52.911Z,5664
2016-11-14T09:00:52.916Z,5684
2016-11-14T09:01:52.918Z,5712
2016-11-14T09:02:52.930Z,5740
2016-11-14T09:03:52.955Z,5764
2016-11-14T09:04:52.965Z,5780
2016-11-14T09:05:52.977Z,5796
2016-11-14T09:06:52.977Z,5812
2016-11-14T09:07:52.998Z,5832
2016-11-14T09:08:53.018Z,5860
2016-11-14T09:09:53.017Z,5892
2016-11-14T09:10:53.040Z,5892
2016-11-14T09:11:53.051Z,5948
2016-11-14T09:12:53.065Z,5956
2016-11-14T09:13:53.078Z,5980
2016-11-14T09:14:53.082Z,5992
2016-11-14T09:15:53.094Z,5964
2016-11-14T09:16:53.108Z,6056
2016-11-14T09:17:53.128Z,6096
2016-11-14T09:18:53.146Z,6152
2016-11-14T09:19:53.142Z,6196
2016-11-14T09:20:53.153Z,6196
2016-11-14T09:21:53.175Z,6156
2016-11-14T09:22:53.192Z,6088
2016-11-14T09:23:53.194Z,6072
2016-11-14T09:24:53.214Z,6080
2016-11-14T09:25:53.226Z,6076
2016-11-14T09:26:53.236Z,6088
2016-11-14T09:27:53.257Z,6128
2016-11-14T09:28:53.255Z,6152
2016-11-14T09:29:53.272Z,6136
2016-11-14T09:30:53.274Z,6084
2016-11-14T09:31:53.292Z,6032
2016-11-14T09:32:53.304Z,5984
2016-11-14T09:33:53.324Z,5916
2016-11-14T09:34:53.338Z,5740
2016-11-14T09:35:53.341Z,5692
2016-11-14T09:36:53.358Z,5944
2016-11-14T09:37:53.369Z,5448
2016-11-14T09:38:53.409Z,5592
2016-11-14T09:39:53.443Z,5900
2016-11-14T09:40:53.445Z,5640
2016-11-14T09:41:53.416Z,5712
2016-11-14T09:42:53.482Z,5984
2016-11-14T09:43:53.482Z,5924
2016-11-14T09:44:53.515Z,5240
2016-11-14T09:45:53.520Z,5228
2016-11-14T09:46:53.542Z,5340
2016-11-14T09:47:53.550Z,5268
2016-11-14T09:48:53.551Z,5408
2016-11-14T09:49:53.561Z,5524
2016-11-14T09:50:53.537Z,5788
2016-11-14T09:51:53.553Z,5720
2016-11-14T09:52:53.562Z,5848
2016-11-14T09:53:53.583Z,5880
2016-11-14T09:54:53.645Z,5828
2016-11-14T09:55:53.604Z,6024
2016-11-14T09:56:53.615Z,5848
2016-11-14T09:57:53.685Z,5372
2016-11-14T09:58:53.646Z,4752
2016-11-14T09:59:53.661Z,5052
2016-11-14T10:00:53.675Z,5600
2016-11-14T10:01:53.740Z,4800
2016-11-14T10:02:53.745Z,4392
2016-11-14T10:03:53.746Z,4744
2016-11-14T10:04:53.726Z,4856
2016-11-14T10:05:53.736Z,5660
2016-11-14T10:06:53.772Z,6172
2016-11-14T10:07:53.759Z,6160
2016-11-14T10:08:54.478Z,6040
2016-11-14T10:09:53.782Z,6184
2016-11-14T10:10:53.811Z,6192
2016-11-14T10:11:53.811Z,6172
2016-11-14T10:12:53.828Z,6184
2016-11-14T10:13:53.843Z,5932
2016-11-14T10:14:53.889Z,5720
2016-11-14T10:15:53.862Z,5736
2016-11-14T10:16:53.868Z,5808
2016-11-14T10:17:53.935Z,6020
2016-11-14T10:18:53.899Z,5940
2016-11-14T10:19:53.962Z,6172
2016-11-14T10:20:53.919Z,6256
2016-11-14T10:21:53.939Z,6216
2016-11-14T10:22:53.956Z,6140
2016-11-14T10:23:53.976Z,6068
2016-11-14T10:24:53.988Z,6172
2016-11-14T10:25:53.990Z,5716
2016-11-14T10:26:54.006Z,6264
2016-11-14T10:27:54.027Z,6204
2016-11-14T10:28:54.035Z,6180
2016-11-14T10:29:54.137Z,6196
2016-11-14T10:30:54.043Z,6228
2016-11-14T10:31:54.075Z,6232
2016-11-14T10:32:54.100Z,6228
2016-11-14T10:33:54.105Z,6280
2016-11-14T10:34:54.118Z,6236
2016-11-14T10:35:54.159Z,6240
2016-11-14T10:36:54.177Z,6152
2016-11-14T10:37:54.158Z,6232
2016-11-14T10:38:54.169Z,6248
2016-11-14T10:39:54.312Z,6304
2016-11-14T10:40:54.230Z,6320
2016-11-14T10:41:54.198Z,6352
2016-11-14T10:42:54.224Z,6372
2016-11-14T10:43:54.238Z,6388
2016-11-14T10:44:54.237Z,6320
2016-11-14T10:45:54.260Z,6360
2016-11-14T10:46:54.274Z,6372
2016-11-14T10:47:54.284Z,5676
2016-11-14T10:48:54.353Z,5492
2016-11-14T10:49:54.310Z,6080
2016-11-14T10:50:54.334Z,5144
2016-11-14T10:51:54.337Z,5340
2016-11-14T10:52:54.358Z,5484
2016-11-14T10:53:54.366Z,5328
2016-11-14T10:54:54.387Z,6132
2016-11-14T10:55:54.395Z,5768
2016-11-14T10:56:54.492Z,5592
2016-11-14T10:57:54.421Z,6180
2016-11-14T10:58:54.441Z,5740
2016-11-14T10:59:54.446Z,5896
2016-11-14T11:00:54.460Z,6524
2016-11-14T11:01:54.488Z,6692
2016-11-14T11:02:54.492Z,5928
2016-11-14T11:03:54.504Z,5384
2016-11-14T11:04:54.524Z,6712
2016-11-14T11:05:54.533Z,6644
2016-11-14T11:06:54.542Z,6656
2016-11-14T11:07:54.588Z,6716
2016-11-14T11:08:54.560Z,6740
2016-11-14T11:09:54.574Z,6544
2016-11-14T11:10:54.595Z,6776
2016-11-14T11:11:54.614Z,6340
2016-11-14T11:12:54.632Z,6484
2016-11-14T11:13:54.629Z,6460
2016-11-14T11:14:54.669Z,6684
2016-11-14T11:15:54.666Z,6612
2016-11-14T11:16:54.681Z,6484
2016-11-14T11:17:54.698Z,6504
2016-11-14T11:18:54.711Z,6608
2016-11-14T11:19:54.726Z,6728
2016-11-14T11:20:54.762Z,6812
2016-11-14T11:21:54.742Z,6872
2016-11-14T11:22:54.760Z,6896
2016-11-14T11:23:54.782Z,6752
2016-11-14T11:24:54.787Z,6144
2016-11-14T11:25:54.811Z,5556
2016-11-14T11:26:54.874Z,5688
2016-11-14T11:27:54.870Z,6368
2016-11-14T11:28:54.851Z,7352
2016-11-14T11:29:54.860Z,7804
2016-11-14T11:30:54.877Z,7256
2016-11-14T11:31:54.887Z,7296
2016-11-14T11:32:54.936Z,7248
2016-11-14T11:33:54.963Z,7052
2016-11-14T11:34:54.931Z,6404
2016-11-14T11:35:54.933Z,7068
2016-11-14T11:36:54.961Z,6448
2016-11-14T11:37:54.977Z,5916
2016-11-14T11:38:54.980Z,6316
2016-11-14T11:39:55.000Z,6056
2016-11-14T11:40:55.018Z,5764
2016-11-14T11:41:55.059Z,5808
2016-11-14T11:42:55.040Z,6052
2016-11-14T11:43:55.059Z,6244
2016-11-14T11:44:55.067Z,6632
2016-11-14T11:45:55.124Z,6832
2016-11-14T11:46:55.102Z,6740
2016-11-14T11:47:55.186Z,6352
2016-11-14T11:48:55.124Z,6492
2016-11-14T11:49:55.140Z,6440
2016-11-14T11:50:55.156Z,6396
2016-11-14T11:51:55.165Z,6580
2016-11-14T11:52:55.178Z,6668
2016-11-14T11:53:55.188Z,6656
2016-11-14T11:54:55.214Z,6580
2016-11-14T11:55:55.227Z,6492
2016-11-14T11:56:55.234Z,6488
2016-11-14T11:57:55.265Z,6456
2016-11-14T11:58:55.261Z,5836
2016-11-14T11:59:55.281Z,6440
2016-11-14T12:00:55.328Z,6344
2016-11-14T12:01:55.303Z,5716
2016-11-14T12:02:55.353Z,6212
2016-11-14T12:03:55.414Z,6332
2016-11-14T12:04:55.338Z,6276
2016-11-14T12:05:55.385Z,6212
2016-11-14T12:06:55.378Z,6212
2016-11-14T12:07:55.394Z,6064
2016-11-14T12:08:55.409Z,5388
2016-11-14T12:09:55.413Z,6268
2016-11-14T12:10:55.432Z,6280
2016-11-14T12:11:55.438Z,6268
2016-11-14T12:12:55.455Z,6328
2016-11-14T12:13:55.474Z,6352
2016-11-14T12:14:55.475Z,6352
2016-11-14T12:15:55.503Z,6408
2016-11-14T12:16:55.508Z,6196
2016-11-14T12:17:55.528Z,6096
2016-11-14T12:18:55.592Z,6164
2016-11-14T12:19:55.552Z,6408
2016-11-14T12:20:55.568Z,6044
2016-11-14T12:21:55.593Z,5820
2016-11-14T12:22:55.598Z,6340
2016-11-14T12:23:55.612Z,6208
2016-11-14T12:24:55.641Z,6092
2016-11-14T12:25:55.641Z,6136
2016-11-14T12:26:55.654Z,5912
2016-11-14T12:27:55.669Z,5816
2016-11-14T12:28:55.689Z,6060
2016-11-14T12:29:55.723Z,6012
2016-11-14T12:30:55.749Z,5936
2016-11-14T12:31:55.819Z,5976
2016-11-14T12:32:55.738Z,6008
2016-11-14T12:33:55.760Z,5944
2016-11-14T12:34:55.773Z,5828
2016-11-14T12:35:55.771Z,5688
2016-11-14T12:36:55.908Z,5752
2016-11-14T12:37:55.817Z,5148
2016-11-14T12:38:55.824Z,5088
2016-11-14T12:39:55.864Z,5264
2016-11-14T12:40:55.855Z,5440
2016-11-14T12:41:55.864Z,5620
2016-11-14T12:42:55.877Z,5688
2016-11-14T12:43:55.899Z,5836
2016-11-14T12:44:55.899Z,5912
2016-11-14T12:45:55.924Z,5924
2016-11-14T12:46:55.933Z,5868
2016-11-14T12:47:55.948Z,5616
2016-11-14T12:48:55.963Z,5572
2016-11-14T12:49:55.986Z,5336
2016-11-14T12:50:55.993Z,5056
2016-11-14T12:51:56.010Z,4920
2016-11-14T12:52:56.021Z,4852
2016-11-14T12:53:56.039Z,4720
2016-11-14T12:54:56.054Z,4424
2016-11-14T12:55:56.084Z,4584
2016-11-14T12:56:56.071Z,4480
2016-11-14T12:57:56.105Z,4596
2016-11-14T12:58:56.141Z,4316
2016-11-14T12:59:56.127Z,4212
2016-11-14T13:00:56.136Z,3944
2016-11-14T13:01:56.154Z,4012
2016-11-14T13:02:56.166Z,3972
2016-11-14T13:03:56.179Z,4016
2016-11-14T13:04:56.192Z,3996
2016-11-14T13:05:56.247Z,4248
2016-11-14T13:06:56.281Z,4444
2016-11-14T13:07:56.284Z,4332
2016-11-14T13:08:56.322Z,4224
2016-11-14T13:09:56.288Z,4056
2016-11-14T13:10:56.285Z,3880
2016-11-14T13:11:56.297Z,3904
2016-11-14T13:12:56.297Z,3880
2016-11-14T13:14:11.169Z,3896
2016-11-14T13:14:56.327Z,3856
2016-11-14T13:15:56.348Z,3864
2016-11-14T13:16:56.355Z,3848
2016-11-14T13:17:56.378Z,3980
2016-11-14T13:18:56.384Z,3948
2016-11-14T13:19:56.404Z,4268
2016-11-14T13:20:56.456Z,4260
2016-11-14T13:21:56.436Z,4256
2016-11-14T13:22:56.440Z,4288
2016-11-14T13:23:56.444Z,4268
2016-11-14T13:24:56.471Z,4244
2016-11-14T13:25:56.490Z,4192
2016-11-14T13:26:56.495Z,3932
2016-11-14T13:27:56.517Z,3788
2016-11-14T13:28:56.528Z,3808
2016-11-14T13:29:56.550Z,3680
2016-11-14T13:30:56.551Z,3564
2016-11-14T13:31:56.579Z,3648
2016-11-14T13:32:56.578Z,3544
2016-11-14T13:33:56.590Z,3476
2016-11-14T13:34:56.622Z,3296
2016-11-14T13:35:56.629Z,3484
2016-11-14T13:36:56.676Z,3468
2016-11-14T13:37:56.696Z,3424
2016-11-14T13:38:56.741Z,3672
2016-11-14T13:39:56.688Z,3672
2016-11-14T13:40:56.692Z,3500
2016-11-14T13:41:56.693Z,3340
2016-11-14T13:42:56.722Z,3328
2016-11-14T13:43:56.743Z,3304
2016-11-14T13:44:56.749Z,3336
2016-11-14T13:45:56.753Z,3436
2016-11-14T13:46:56.904Z,3472
2016-11-14T13:47:56.787Z,3520
2016-11-14T13:48:56.816Z,3572
2016-11-14T13:49:56.813Z,3604
2016-11-14T13:50:56.841Z,3588
2016-11-14T13:51:56.850Z,3516
2016-11-14T13:52:56.864Z,3448
2016-11-14T13:53:56.879Z,3408
2016-11-14T13:54:56.897Z,3340
2016-11-14T13:55:56.910Z,3264
2016-11-14T13:56:56.913Z,3040
2016-11-14T13:57:56.936Z,2908
2016-11-14T13:58:56.941Z,2748
2016-11-14T13:59:56.978Z,2600